Adrian, Washington
Current Conditions -  °F | °C
As of 3:53 PM on Monday 20 Oct 2014 (Local Time) from KEPH Reporting Station
Overcast Overcast  
Wind Chill: 17°   Ceiling: 6500
Heat Index: 17°   Visibility: 10mi
Dew Point: 10°   Wind: 7mph
Humidity: 63%   Direction: 240°WSW
Pressure: 29.74"   Gusts: NA
Location:  47.4314°N, 119.485°W
Report Text: KEPH 202253Z AUTO 24006KT 10SM OVC065 17/10 A2974 RMK AO2 SLP069 T01720100
Loading
Personal Weather Stations






























Interactive Weather Map
Tropical Storm Tracking
New forecast layout! Learn more

10-Day Weather Forecast

Advertisements
Track Severe Weather on mobile